createdAt,value
2017-07-15T00:00:02.358Z,0
2017-07-15T00:01:03.727Z,0
2017-07-15T00:02:05.097Z,0
2017-07-15T00:03:06.467Z,0
2017-07-15T00:04:07.836Z,0
2017-07-15T00:05:09.209Z,0
2017-07-15T00:06:10.581Z,0
2017-07-15T00:07:11.954Z,0
2017-07-15T00:08:13.326Z,0
2017-07-15T00:09:14.695Z,0
2017-07-15T00:10:16.066Z,0
2017-07-15T00:11:17.437Z,0
2017-07-15T00:12:18.807Z,0
2017-07-15T00:13:20.176Z,0
2017-07-15T00:14:21.551Z,0
2017-07-15T00:15:22.924Z,0
2017-07-15T00:16:24.314Z,0
2017-07-15T00:17:25.685Z,0
2017-07-15T00:18:27.060Z,0
2017-07-15T00:19:28.423Z,0
2017-07-15T00:20:29.795Z,0
2017-07-15T00:21:31.163Z,0
2017-07-15T00:22:32.533Z,0
2017-07-15T00:23:33.901Z,0
2017-07-15T00:24:35.275Z,0
2017-07-15T00:25:36.645Z,0
2017-07-15T00:26:38.020Z,0
2017-07-15T00:27:39.389Z,0
2017-07-15T00:28:40.761Z,0
2017-07-15T00:29:42.151Z,0
2017-07-15T00:30:43.497Z,0
2017-07-15T00:31:44.867Z,0
2017-07-15T00:32:46.239Z,0
2017-07-15T00:33:47.610Z,0
2017-07-15T00:34:48.981Z,0
2017-07-15T00:35:50.355Z,0
2017-07-15T00:36:51.729Z,0
2017-07-15T00:37:53.094Z,0
2017-07-15T00:38:54.463Z,0
2017-07-15T00:39:55.841Z,0
2017-07-15T00:40:57.218Z,0
2017-07-15T00:41:58.587Z,0
2017-07-15T00:42:59.959Z,0
2017-07-15T00:44:01.339Z,0
2017-07-15T00:45:02.709Z,0
2017-07-15T00:46:04.079Z,0
2017-07-15T00:47:05.446Z,0
2017-07-15T00:48:06.821Z,0
2017-07-15T00:49:08.195Z,0
2017-07-15T00:50:09.566Z,0
2017-07-15T00:51:10.938Z,0
2017-07-15T00:52:12.302Z,0
2017-07-15T00:53:13.683Z,0
2017-07-15T00:54:15.056Z,0
2017-07-15T00:55:16.425Z,0
2017-07-15T00:56:17.794Z,0
2017-07-15T00:57:19.180Z,0
2017-07-15T00:58:20.553Z,0
2017-07-15T00:59:21.927Z,0
2017-07-15T01:00:23.303Z,0
2017-07-15T01:01:24.665Z,0
2017-07-15T01:02:26.051Z,0
2017-07-15T01:03:27.419Z,0
2017-07-15T01:04:28.795Z,0
2017-07-15T01:05:30.164Z,0
2017-07-15T01:06:31.531Z,0
2017-07-15T01:07:32.900Z,0
2017-07-15T01:08:34.267Z,0
2017-07-15T01:09:35.642Z,0
2017-07-15T01:10:37.009Z,0
2017-07-15T01:11:38.382Z,0
2017-07-15T01:12:39.749Z,0
2017-07-15T01:13:41.121Z,0
2017-07-15T01:14:42.489Z,0
2017-07-15T01:15:43.859Z,0
2017-07-15T01:16:45.227Z,0
2017-07-15T01:17:46.594Z,0
2017-07-15T01:18:47.972Z,0
2017-07-15T01:19:49.348Z,0
2017-07-15T01:20:50.718Z,0
2017-07-15T01:21:52.101Z,0
2017-07-15T01:22:53.473Z,0
2017-07-15T01:23:54.843Z,0
2017-07-15T01:24:56.213Z,0
2017-07-15T01:25:57.583Z,0
2017-07-15T01:26:58.959Z,0
2017-07-15T01:28:00.328Z,0
2017-07-15T01:29:01.702Z,0
2017-07-15T01:30:03.075Z,0
2017-07-15T01:31:04.442Z,0
2017-07-15T01:32:05.849Z,0
2017-07-15T01:33:07.225Z,0
2017-07-15T01:34:08.598Z,0
2017-07-15T01:35:09.968Z,0
2017-07-15T01:36:11.333Z,0
2017-07-15T01:37:12.709Z,0
2017-07-15T01:38:14.077Z,0
2017-07-15T01:39:15.469Z,0
2017-07-15T01:40:16.867Z,0
2017-07-15T01:41:18.234Z,0
2017-07-15T01:42:19.619Z,0
2017-07-15T01:43:20.991Z,0
2017-07-15T01:44:22.362Z,0
2017-07-15T01:45:23.732Z,0
2017-07-15T01:46:25.100Z,0
2017-07-15T01:47:26.469Z,0
2017-07-15T01:48:27.839Z,0
2017-07-15T01:49:29.208Z,0
2017-07-15T01:50:30.576Z,0
2017-07-15T01:51:31.946Z,0
2017-07-15T01:52:33.315Z,0
2017-07-15T01:53:34.688Z,0
2017-07-15T01:54:36.057Z,0
2017-07-15T01:55:37.427Z,0
2017-07-15T01:56:38.798Z,0
2017-07-15T01:57:40.167Z,0
2017-07-15T01:58:41.538Z,0
2017-07-15T01:59:42.907Z,0
2017-07-15T02:00:44.279Z,0
2017-07-15T02:01:45.653Z,0
2017-07-15T02:02:47.029Z,0
2017-07-15T02:03:48.395Z,0
2017-07-15T02:04:49.769Z,0
2017-07-15T02:05:51.147Z,0
2017-07-15T02:06:52.509Z,0
2017-07-15T02:07:53.880Z,0
2017-07-15T02:08:55.251Z,0
2017-07-15T02:09:56.621Z,0
2017-07-15T02:10:57.991Z,0
2017-07-15T02:11:59.362Z,0
2017-07-15T02:13:00.734Z,0
2017-07-15T02:14:02.100Z,0
2017-07-15T02:15:03.470Z,0
2017-07-15T02:16:04.841Z,0
2017-07-15T02:17:06.212Z,0
2017-07-15T02:18:07.581Z,0
2017-07-15T02:19:08.948Z,0
2017-07-15T02:20:10.318Z,0
2017-07-15T02:21:11.688Z,0
2017-07-15T02:22:13.057Z,0
2017-07-15T02:23:14.429Z,0
2017-07-15T02:24:15.800Z,0
2017-07-15T02:25:17.171Z,0
2017-07-15T02:26:18.540Z,0
2017-07-15T02:27:19.912Z,0
2017-07-15T02:28:21.308Z,0
2017-07-15T02:29:22.697Z,0
2017-07-15T02:30:24.072Z,0
2017-07-15T02:31:25.444Z,0
2017-07-15T02:32:26.816Z,0
2017-07-15T02:33:28.181Z,0
2017-07-15T02:34:29.559Z,0
2017-07-15T02:35:30.933Z,0
2017-07-15T02:36:32.325Z,0
2017-07-15T02:37:33.701Z,0
2017-07-15T02:38:35.042Z,0
2017-07-15T02:39:36.413Z,0
2017-07-15T02:40:37.782Z,0
2017-07-15T02:41:39.159Z,0
2017-07-15T02:42:40.527Z,0
2017-07-15T02:43:41.897Z,0
2017-07-15T02:44:43.271Z,0
2017-07-15T02:45:44.649Z,0
2017-07-15T02:46:46.019Z,0
2017-07-15T02:47:47.386Z,0
2017-07-15T02:48:48.759Z,0
2017-07-15T02:49:50.133Z,0
2017-07-15T02:50:51.505Z,0
2017-07-15T02:51:52.880Z,0
2017-07-15T02:52:54.254Z,0
2017-07-15T02:53:55.629Z,0
2017-07-15T02:54:56.998Z,0
2017-07-15T02:55:58.367Z,0
2017-07-15T02:56:59.736Z,0
2017-07-15T02:58:01.105Z,0
2017-07-15T02:59:02.477Z,0
2017-07-15T03:00:03.849Z,0
2017-07-15T03:01:05.219Z,4
2017-07-15T03:02:06.590Z,4
2017-07-15T03:03:07.963Z,4
2017-07-15T03:04:09.336Z,4
2017-07-15T03:05:10.742Z,4
2017-07-15T03:06:12.077Z,8
2017-07-15T03:07:13.450Z,4
2017-07-15T03:08:14.818Z,8
2017-07-15T03:09:16.191Z,12
2017-07-15T03:10:17.568Z,16
2017-07-15T03:11:18.937Z,16
2017-07-15T03:12:20.311Z,16
2017-07-15T03:13:21.687Z,16
2017-07-15T03:14:23.066Z,16
2017-07-15T03:15:24.438Z,16
2017-07-15T03:16:25.805Z,12
2017-07-15T03:17:27.178Z,12
2017-07-15T03:18:28.548Z,8
2017-07-15T03:19:29.921Z,12
2017-07-15T03:20:31.291Z,12
2017-07-15T03:21:32.664Z,8
2017-07-15T03:22:34.032Z,12
2017-07-15T03:23:35.401Z,16
2017-07-15T03:24:36.784Z,20
2017-07-15T03:25:38.144Z,24
2017-07-15T03:26:39.515Z,28
2017-07-15T03:27:40.885Z,28
2017-07-15T03:28:42.258Z,28
2017-07-15T03:29:43.631Z,28
2017-07-15T03:30:45.007Z,32
2017-07-15T03:31:46.377Z,36
2017-07-15T03:32:47.747Z,36
2017-07-15T03:33:49.119Z,36
2017-07-15T03:34:50.490Z,40
2017-07-15T03:35:51.869Z,48
2017-07-15T03:36:53.232Z,52
2017-07-15T03:37:54.601Z,60
2017-07-15T03:38:55.970Z,68
2017-07-15T03:39:57.345Z,72
2017-07-15T03:40:58.718Z,80
2017-07-15T03:42:00.093Z,76
2017-07-15T03:43:01.465Z,72
2017-07-15T03:44:02.831Z,76
2017-07-15T03:45:04.203Z,68
2017-07-15T03:46:05.573Z,68
2017-07-15T03:47:06.942Z,60
2017-07-15T03:48:08.336Z,64
2017-07-15T03:49:09.714Z,72
2017-07-15T03:50:11.085Z,76
2017-07-15T03:51:12.458Z,100
2017-07-15T03:52:13.830Z,124
2017-07-15T03:53:15.200Z,132
2017-07-15T03:54:16.571Z,144
2017-07-15T03:55:17.946Z,140
2017-07-15T03:56:19.318Z,132
2017-07-15T03:57:20.696Z,128
2017-07-15T03:58:22.061Z,128
2017-07-15T03:59:23.432Z,128
2017-07-15T04:00:24.808Z,148
2017-07-15T04:01:26.189Z,172
2017-07-15T04:02:27.565Z,176
2017-07-15T04:03:28.942Z,188
2017-07-15T04:04:30.314Z,192
2017-07-15T04:05:31.687Z,196
2017-07-15T04:06:33.070Z,200
2017-07-15T04:07:34.455Z,212
2017-07-15T04:08:35.832Z,224
2017-07-15T04:09:37.208Z,240
2017-07-15T04:10:38.581Z,264
2017-07-15T04:11:39.956Z,288
2017-07-15T04:12:41.329Z,284
2017-07-15T04:13:42.703Z,284
2017-07-15T04:14:44.074Z,296
2017-07-15T04:15:45.458Z,300
2017-07-15T04:16:46.824Z,312
2017-07-15T04:17:48.201Z,316
2017-07-15T04:18:49.574Z,324
2017-07-15T04:19:50.946Z,344
2017-07-15T04:20:52.318Z,368
2017-07-15T04:21:53.690Z,396
2017-07-15T04:22:55.062Z,420
2017-07-15T04:23:56.433Z,432
2017-07-15T04:24:57.808Z,424
2017-07-15T04:25:59.179Z,420
2017-07-15T04:27:00.547Z,436
2017-07-15T04:28:01.918Z,488
2017-07-15T04:29:03.289Z,572
2017-07-15T04:30:04.663Z,628
2017-07-15T04:31:06.037Z,680
2017-07-15T04:32:07.406Z,720
2017-07-15T04:33:08.779Z,716
2017-07-15T04:34:10.146Z,616
2017-07-15T04:35:11.522Z,484
2017-07-15T04:36:12.894Z,352
2017-07-15T04:37:14.267Z,308
2017-07-15T04:38:15.639Z,332
2017-07-15T04:39:17.012Z,336
2017-07-15T04:40:18.392Z,316
2017-07-15T04:41:19.765Z,288
2017-07-15T04:42:21.131Z,280
2017-07-15T04:43:22.505Z,280
2017-07-15T04:44:23.878Z,272
2017-07-15T04:45:25.251Z,272
2017-07-15T04:46:26.622Z,268
2017-07-15T04:47:27.998Z,268
2017-07-15T04:48:29.376Z,276
2017-07-15T04:49:30.748Z,292
2017-07-15T04:50:32.123Z,300
2017-07-15T04:51:33.496Z,336
2017-07-15T04:52:34.869Z,384
2017-07-15T04:53:36.240Z,420
2017-07-15T04:54:37.611Z,488
2017-07-15T04:55:38.984Z,508
2017-07-15T04:56:40.354Z,512
2017-07-15T04:57:41.727Z,532
2017-07-15T04:58:43.112Z,516
2017-07-15T04:59:44.482Z,492
2017-07-15T05:00:45.853Z,460
2017-07-15T05:01:47.223Z,464
2017-07-15T05:02:48.599Z,496
2017-07-15T05:03:49.970Z,540
2017-07-15T05:04:51.375Z,568
2017-07-15T05:05:52.724Z,616
2017-07-15T05:06:54.093Z,704
2017-07-15T05:07:55.465Z,840
2017-07-15T05:08:56.840Z,1020
2017-07-15T05:09:58.212Z,1252
2017-07-15T05:10:59.582Z,1384
2017-07-15T05:12:00.960Z,1384
2017-07-15T05:13:02.333Z,1264
2017-07-15T05:14:03.705Z,1200
2017-07-15T05:15:05.081Z,1364
2017-07-15T05:16:06.456Z,1516
2017-07-15T05:17:07.832Z,1568
2017-07-15T05:18:09.207Z,1720
2017-07-15T05:19:10.596Z,2020
2017-07-15T05:20:11.968Z,2196
2017-07-15T05:21:13.344Z,2240
2017-07-15T05:22:14.716Z,2340
2017-07-15T05:23:16.092Z,2528
2017-07-15T05:24:17.461Z,2452
2017-07-15T05:25:18.834Z,2576
2017-07-15T05:26:20.226Z,2580
2017-07-15T05:27:21.605Z,2752
2017-07-15T05:28:22.978Z,2840
2017-07-15T05:29:24.349Z,2984
2017-07-15T05:30:25.727Z,3136
2017-07-15T05:31:27.098Z,3308
2017-07-15T05:32:28.469Z,3452
2017-07-15T05:33:29.858Z,3616
2017-07-15T05:34:31.233Z,3288
2017-07-15T05:35:32.609Z,3184
2017-07-15T05:36:33.979Z,2616
2017-07-15T05:37:35.352Z,2284
2017-07-15T05:38:36.815Z,2248
2017-07-15T05:39:38.185Z,2108
2017-07-15T05:40:39.565Z,2452
2017-07-15T05:41:40.939Z,2452
2017-07-15T05:42:42.310Z,2728
2017-07-15T05:43:43.688Z,2748
2017-07-15T05:44:45.061Z,3384
2017-07-15T05:45:46.431Z,3568
2017-07-15T05:46:47.803Z,3800
2017-07-15T05:47:49.180Z,3532
2017-07-15T05:48:50.554Z,3196
2017-07-15T05:49:51.981Z,3288
2017-07-15T05:50:53.382Z,3436
2017-07-15T05:51:54.788Z,3404
2017-07-15T05:52:56.162Z,3524
2017-07-15T05:53:57.649Z,3484
2017-07-15T05:54:59.055Z,3408
2017-07-15T05:56:00.444Z,3404
2017-07-15T05:57:01.880Z,3396
2017-07-15T05:58:03.271Z,3524
2017-07-15T05:59:04.648Z,3256
2017-07-15T06:00:06.019Z,2980
2017-07-15T06:01:07.389Z,2580
2017-07-15T06:02:09.466Z,2240
2017-07-15T06:03:10.872Z,2048
2017-07-15T06:04:12.247Z,2324
2017-07-15T06:05:13.843Z,2816
2017-07-15T06:06:15.216Z,3328
2017-07-15T06:07:16.622Z,4360
2017-07-15T06:08:17.964Z,4440
2017-07-15T06:09:19.336Z,5352
2017-07-15T06:10:20.714Z,4828
2017-07-15T06:11:22.086Z,4772
2017-07-15T06:12:23.566Z,5128
2017-07-15T06:13:25.040Z,4940
2017-07-15T06:14:26.421Z,4596
2017-07-15T06:15:27.790Z,3416
2017-07-15T06:16:29.166Z,2552
2017-07-15T06:17:30.540Z,2304
2017-07-15T06:18:31.920Z,1932
2017-07-15T06:19:33.295Z,2268
2017-07-15T06:20:34.710Z,2644
2017-07-15T06:21:36.086Z,2764
2017-07-15T06:22:37.457Z,3160
2017-07-15T06:23:38.828Z,2932
2017-07-15T06:24:40.203Z,2548
2017-07-15T06:25:41.577Z,2452
2017-07-15T06:26:42.950Z,2468
2017-07-15T06:27:44.326Z,2252
2017-07-15T06:28:45.702Z,2264
2017-07-15T06:29:47.072Z,2448
2017-07-15T06:30:48.446Z,2736
2017-07-15T06:31:49.821Z,2976
2017-07-15T06:32:51.406Z,2864
2017-07-15T06:33:52.785Z,2848
2017-07-15T06:34:54.163Z,3236
2017-07-15T06:35:55.533Z,3312
2017-07-15T06:36:56.919Z,2992
2017-07-15T06:37:58.287Z,2732
2017-07-15T06:38:59.663Z,2512
2017-07-15T06:40:01.040Z,2832
2017-07-15T06:41:02.413Z,2828
2017-07-15T06:42:03.788Z,3480
2017-07-15T06:43:05.161Z,3872
2017-07-15T06:44:06.535Z,3868
2017-07-15T06:45:07.907Z,3956
2017-07-15T06:46:09.283Z,4352
2017-07-15T06:47:10.655Z,4544
2017-07-15T06:48:12.030Z,4448
2017-07-15T06:49:13.406Z,4272
2017-07-15T06:50:14.779Z,4232
2017-07-15T06:51:16.150Z,3688
2017-07-15T06:52:17.525Z,3632
2017-07-15T06:53:18.899Z,3508
2017-07-15T06:54:20.273Z,3164
2017-07-15T06:55:21.648Z,2912
2017-07-15T06:56:23.021Z,3252
2017-07-15T06:57:24.398Z,2940
2017-07-15T06:58:25.777Z,3020
2017-07-15T06:59:27.145Z,3844
2017-07-15T07:00:28.517Z,3328
2017-07-15T07:01:29.890Z,2500
2017-07-15T07:02:31.264Z,2644
2017-07-15T07:03:32.790Z,3120
2017-07-15T07:04:34.166Z,2312
2017-07-15T07:05:35.537Z,2560
2017-07-15T07:06:36.913Z,2652
2017-07-15T07:07:38.299Z,3160
2017-07-15T07:08:39.675Z,4020
2017-07-15T07:09:41.050Z,4060
2017-07-15T07:10:42.455Z,3020
2017-07-15T07:11:43.826Z,2560
2017-07-15T07:12:45.200Z,2652
2017-07-15T07:13:46.575Z,3512
2017-07-15T07:14:47.997Z,2908
2017-07-15T07:15:49.406Z,3196
2017-07-15T07:16:50.855Z,4712
2017-07-15T07:17:52.232Z,4944
2017-07-15T07:18:53.624Z,4104
2017-07-15T07:19:54.990Z,2892
2017-07-15T07:20:56.369Z,2724
2017-07-15T07:21:57.784Z,3328
2017-07-15T07:22:59.159Z,3948
2017-07-15T07:24:00.531Z,4812
2017-07-15T07:25:01.907Z,4496
2017-07-15T07:26:03.280Z,4608
2017-07-15T07:27:04.653Z,4048
2017-07-15T07:28:06.021Z,4104
2017-07-15T07:29:07.413Z,4312
2017-07-15T07:30:08.782Z,4212
2017-07-15T07:31:10.160Z,2960
2017-07-15T07:32:11.534Z,2996
2017-07-15T07:33:12.905Z,3204
2017-07-15T07:34:14.278Z,2948
2017-07-15T07:35:15.651Z,4432
2017-07-15T07:36:17.026Z,4708
2017-07-15T07:37:18.447Z,4484
2017-07-15T07:38:19.825Z,4752
2017-07-15T07:39:21.196Z,4848
2017-07-15T07:40:22.572Z,5188
2017-07-15T07:41:23.947Z,4680
2017-07-15T07:42:25.317Z,4664
2017-07-15T07:43:26.699Z,5584
2017-07-15T07:44:28.069Z,5536
2017-07-15T07:45:29.446Z,5332
2017-07-15T07:46:30.822Z,4564
2017-07-15T07:47:32.194Z,4548
2017-07-15T07:48:33.567Z,4828
2017-07-15T07:49:34.938Z,5316
2017-07-15T07:50:36.331Z,5852
2017-07-15T07:51:37.704Z,6100
2017-07-15T07:52:39.079Z,6156
2017-07-15T07:53:40.454Z,5736
2017-07-15T07:54:41.826Z,5656
2017-07-15T07:55:43.197Z,5276
2017-07-15T07:56:44.569Z,5368
2017-07-15T07:57:45.946Z,5304
2017-07-15T07:58:47.319Z,5072
2017-07-15T07:59:48.695Z,4920
2017-07-15T08:00:50.069Z,4620
2017-07-15T08:01:51.441Z,4336
2017-07-15T08:02:52.815Z,4928
2017-07-15T08:03:54.192Z,5040
2017-07-15T08:04:55.570Z,4920
2017-07-15T08:05:56.938Z,4384
2017-07-15T08:06:58.312Z,4080
2017-07-15T08:07:59.692Z,4076
2017-07-15T08:09:01.067Z,3588
2017-07-15T08:10:02.442Z,3032
2017-07-15T08:11:03.813Z,2896
2017-07-15T08:12:05.187Z,4208
2017-07-15T08:13:06.563Z,4544
2017-07-15T08:14:07.938Z,4200
2017-07-15T08:15:09.314Z,3464
2017-07-15T08:16:10.689Z,2880
2017-07-15T08:17:12.057Z,2400
2017-07-15T08:18:13.431Z,1992
2017-07-15T08:19:14.805Z,1448
2017-07-15T08:20:16.186Z,1196
2017-07-15T08:21:17.592Z,1140
2017-07-15T08:22:18.998Z,1028
2017-07-15T08:23:20.377Z,1088
2017-07-15T08:24:21.747Z,1280
2017-07-15T08:25:23.126Z,1820
2017-07-15T08:26:24.503Z,2348
2017-07-15T08:27:25.880Z,2700
2017-07-15T08:28:27.254Z,2980
2017-07-15T08:29:28.624Z,3108
2017-07-15T08:30:29.999Z,3344
2017-07-15T08:31:31.376Z,3380
2017-07-15T08:32:32.750Z,3504
2017-07-15T08:33:34.125Z,3784
2017-07-15T08:34:35.499Z,3692
2017-07-15T08:35:36.875Z,3512
2017-07-15T08:36:38.249Z,3384
2017-07-15T08:37:39.624Z,3160
2017-07-15T08:38:40.998Z,2976
2017-07-15T08:39:42.373Z,2832
2017-07-15T08:40:43.750Z,2660
2017-07-15T08:41:45.121Z,2428
2017-07-15T08:42:46.500Z,2228
2017-07-15T08:43:47.881Z,2012
2017-07-15T08:44:49.251Z,1788
2017-07-15T08:45:50.630Z,1696
2017-07-15T08:46:52.006Z,1656
2017-07-15T08:47:53.381Z,1644
2017-07-15T08:48:54.757Z,1628
2017-07-15T08:49:56.131Z,1664
2017-07-15T08:50:57.505Z,1708
2017-07-15T08:51:58.879Z,2060
2017-07-15T08:53:00.252Z,2796
2017-07-15T08:54:01.627Z,3296
2017-07-15T08:55:03.005Z,3896
2017-07-15T08:56:04.379Z,4304
2017-07-15T08:57:05.755Z,4160
2017-07-15T08:58:07.266Z,3984
2017-07-15T08:59:08.591Z,3544
2017-07-15T09:00:09.961Z,2944
2017-07-15T09:01:11.396Z,2628
2017-07-15T09:02:12.715Z,2372
2017-07-15T09:03:14.093Z,2268
2017-07-15T09:04:15.469Z,2212
2017-07-15T09:05:16.844Z,2100
2017-07-15T09:06:18.225Z,2072
2017-07-15T09:07:19.601Z,2156
2017-07-15T09:08:20.996Z,2516
2017-07-15T09:09:22.367Z,2768
2017-07-15T09:10:23.742Z,3736
2017-07-15T09:11:25.117Z,3656
2017-07-15T09:12:26.494Z,4080
2017-07-15T09:13:27.866Z,4556
2017-07-15T09:14:29.245Z,4060
2017-07-15T09:15:30.615Z,3464
2017-07-15T09:16:31.992Z,3648
2017-07-15T09:17:33.369Z,4284
2017-07-15T09:18:34.746Z,4280
2017-07-15T09:19:36.125Z,3400
2017-07-15T09:20:37.496Z,2972
2017-07-15T09:21:38.868Z,2892
2017-07-15T09:22:40.246Z,2696
2017-07-15T09:23:41.617Z,2176
2017-07-15T09:24:42.993Z,2316
2017-07-15T09:25:44.368Z,2904
2017-07-15T09:26:45.747Z,4084
2017-07-15T09:27:47.123Z,4216
2017-07-15T09:28:48.505Z,3812
2017-07-15T09:29:49.867Z,3064
2017-07-15T09:30:51.241Z,3096
2017-07-15T09:31:52.615Z,2772
2017-07-15T09:32:53.996Z,2328
2017-07-15T09:33:55.371Z,1996
2017-07-15T09:34:56.749Z,1796
2017-07-15T09:35:58.119Z,1640
2017-07-15T09:36:59.512Z,1620
2017-07-15T09:38:00.895Z,1816
2017-07-15T09:39:02.266Z,1884
2017-07-15T09:40:03.643Z,2396
2017-07-15T09:41:05.022Z,3080
2017-07-15T09:42:06.397Z,3244
2017-07-15T09:43:07.764Z,4120
2017-07-15T09:44:09.146Z,4284
2017-07-15T09:45:10.520Z,3920
2017-07-15T09:46:11.902Z,3476
2017-07-15T09:47:13.273Z,3164
2017-07-15T09:48:14.650Z,3108
2017-07-15T09:49:16.021Z,3392
2017-07-15T09:50:17.393Z,4008
2017-07-15T09:51:18.767Z,4068
2017-07-15T09:52:20.143Z,4192
2017-07-15T09:53:21.513Z,3364
2017-07-15T09:54:22.891Z,2956
2017-07-15T09:55:24.265Z,2916
2017-07-15T09:56:25.642Z,2304
2017-07-15T09:57:27.021Z,1976
2017-07-15T09:58:28.398Z,1880
2017-07-15T09:59:29.771Z,1904
2017-07-15T10:00:31.153Z,2280
2017-07-15T10:01:32.527Z,3428
2017-07-15T10:02:33.903Z,4436
2017-07-15T10:03:35.279Z,5184
2017-07-15T10:04:36.648Z,5604
2017-07-15T10:05:38.023Z,5680
2017-07-15T10:06:39.398Z,5256
2017-07-15T10:07:40.773Z,4648
2017-07-15T10:08:42.146Z,3640
2017-07-15T10:09:43.520Z,2840
2017-07-15T10:10:44.892Z,2104
2017-07-15T10:11:46.265Z,1628
2017-07-15T10:12:47.641Z,1320
2017-07-15T10:13:49.013Z,1128
2017-07-15T10:14:50.385Z,1092
2017-07-15T10:15:51.761Z,1256
2017-07-15T10:16:53.136Z,1400
2017-07-15T10:17:54.550Z,1388
2017-07-15T10:18:55.974Z,1328
2017-07-15T10:19:57.463Z,1304
2017-07-15T10:20:58.855Z,1480
2017-07-15T10:22:00.262Z,1588
2017-07-15T10:23:01.782Z,1616
2017-07-15T10:24:03.175Z,1548
2017-07-15T10:25:04.641Z,1536
2017-07-15T10:26:06.098Z,1544
2017-07-15T10:27:07.520Z,1568
2017-07-15T10:28:08.901Z,1548
2017-07-15T10:29:10.317Z,1448
2017-07-15T10:30:51.162Z,1300
2017-07-15T10:31:52.533Z,1124
2017-07-15T10:33:14.029Z,1156
2017-07-15T10:34:15.399Z,1196
2017-07-15T10:35:36.970Z,1160
2017-07-15T10:36:38.347Z,1204
2017-07-15T10:37:59.829Z,1260
2017-07-15T10:39:01.211Z,1576
2017-07-15T10:40:22.782Z,2000
2017-07-15T10:41:24.146Z,2484
2017-07-15T10:42:45.719Z,3376
2017-07-15T10:43:47.091Z,3872
2017-07-15T10:45:08.594Z,4300
2017-07-15T10:46:09.964Z,4624
2017-07-15T10:47:31.534Z,4824
2017-07-15T10:48:32.897Z,4764
2017-07-15T10:49:54.470Z,4840
2017-07-15T10:50:55.844Z,4972
2017-07-15T10:52:17.332Z,4564
2017-07-15T10:53:18.706Z,4324
2017-07-15T10:54:40.273Z,4884
2017-07-15T10:55:41.646Z,5172
2017-07-15T10:57:03.122Z,5216
2017-07-15T10:58:04.494Z,5084
2017-07-15T10:59:26.091Z,4988
2017-07-15T11:00:27.464Z,4840
2017-07-15T11:01:28.839Z,4572
2017-07-15T11:02:30.211Z,4316
2017-07-15T11:03:31.589Z,4080
2017-07-15T11:04:32.959Z,3908
2017-07-15T11:05:34.337Z,3952
2017-07-15T11:06:35.711Z,4004
2017-07-15T11:07:37.083Z,4032
2017-07-15T11:08:38.462Z,3772
2017-07-15T11:09:39.828Z,3568
2017-07-15T11:10:41.202Z,3496
2017-07-15T11:11:42.580Z,3304
2017-07-15T11:12:43.955Z,2952
2017-07-15T11:13:45.328Z,2688
2017-07-15T11:14:46.703Z,2536
2017-07-15T11:15:48.075Z,2272
2017-07-15T11:16:49.452Z,2576
2017-07-15T11:17:50.828Z,3596
2017-07-15T11:18:52.201Z,4248
2017-07-15T11:19:53.577Z,4716
2017-07-15T11:20:54.958Z,4792
2017-07-15T11:21:56.335Z,5444
2017-07-15T11:22:57.705Z,6000
2017-07-15T11:23:59.078Z,5968
2017-07-15T11:25:00.452Z,6012
2017-07-15T11:26:01.826Z,5776
2017-07-15T11:27:03.203Z,6088
2017-07-15T11:28:04.578Z,5964
2017-07-15T11:29:05.953Z,5684
2017-07-15T11:30:07.327Z,5500
2017-07-15T11:31:08.711Z,5272
2017-07-15T11:32:10.086Z,4936
2017-07-15T11:33:11.461Z,4856
2017-07-15T11:34:12.835Z,5032
2017-07-15T11:35:14.212Z,5180
2017-07-15T11:36:15.583Z,5032
2017-07-15T11:37:16.955Z,4708
2017-07-15T11:38:18.327Z,4560
2017-07-15T11:39:19.707Z,4892
2017-07-15T11:40:21.077Z,5232
2017-07-15T11:41:22.451Z,5384
2017-07-15T11:42:23.832Z,5632
2017-07-15T11:43:25.201Z,5504
2017-07-15T11:44:26.572Z,4752
2017-07-15T11:45:27.952Z,4060
2017-07-15T11:46:29.328Z,4068
2017-07-15T11:47:30.702Z,4316
2017-07-15T11:48:32.076Z,4392
2017-07-15T11:49:33.458Z,4356
2017-07-15T11:50:34.834Z,4692
2017-07-15T11:51:36.205Z,4628
2017-07-15T11:52:37.576Z,4724
2017-07-15T11:53:38.969Z,4780
2017-07-15T11:54:40.348Z,4784
2017-07-15T11:55:41.728Z,4844
2017-07-15T11:56:43.104Z,4672
2017-07-15T11:57:44.474Z,4592
2017-07-15T11:58:45.850Z,4372
2017-07-15T11:59:47.223Z,4244
2017-07-15T12:00:48.595Z,4268
2017-07-15T12:01:49.970Z,4324
2017-07-15T12:02:51.347Z,3960
2017-07-15T12:03:52.720Z,3420
2017-07-15T12:04:54.092Z,3124
2017-07-15T12:05:55.465Z,3144
2017-07-15T12:06:56.838Z,3288
2017-07-15T12:07:58.212Z,3404
2017-07-15T12:08:59.587Z,3488
2017-07-15T12:10:00.961Z,3768
2017-07-15T12:11:02.446Z,4576
2017-07-15T12:12:03.825Z,4696
2017-07-15T12:13:05.205Z,4220
2017-07-15T12:14:06.577Z,4544
2017-07-15T12:15:07.952Z,3720
2017-07-15T12:16:09.328Z,3992
2017-07-15T12:17:10.699Z,4248
2017-07-15T12:18:12.083Z,4436
2017-07-15T12:19:13.453Z,4536
2017-07-15T12:20:14.825Z,4136
2017-07-15T12:21:16.201Z,4356
2017-07-15T12:22:17.572Z,4212
2017-07-15T12:23:18.952Z,4008
2017-07-15T12:24:20.327Z,3532
2017-07-15T12:25:21.705Z,3016
2017-07-15T12:26:23.078Z,2316
2017-07-15T12:27:24.449Z,2056
2017-07-15T12:28:25.822Z,1928
2017-07-15T12:29:27.194Z,2020
2017-07-15T12:30:28.568Z,1796
2017-07-15T12:31:29.946Z,1664
2017-07-15T12:32:31.320Z,1632
2017-07-15T12:33:32.688Z,1612
2017-07-15T12:34:34.065Z,1484
2017-07-15T12:35:35.443Z,1432
2017-07-15T12:36:36.809Z,1324
2017-07-15T12:37:38.180Z,1224
2017-07-15T12:38:39.556Z,1204
2017-07-15T12:39:40.930Z,1144
2017-07-15T12:40:42.303Z,964
2017-07-15T12:41:43.673Z,920
2017-07-15T12:42:45.049Z,856
2017-07-15T12:43:46.477Z,816
2017-07-15T12:44:47.927Z,880
2017-07-15T12:45:49.301Z,952
2017-07-15T12:46:50.689Z,1120
2017-07-15T12:47:52.053Z,1284
2017-07-15T12:48:53.426Z,1364
2017-07-15T12:49:54.798Z,1536
2017-07-15T12:50:56.171Z,1780
2017-07-15T12:51:57.547Z,2064
2017-07-15T12:52:58.926Z,2500
2017-07-15T12:54:00.301Z,2952
2017-07-15T12:55:01.676Z,3136
2017-07-15T12:56:03.057Z,3260
2017-07-15T12:57:04.424Z,3088
2017-07-15T12:58:05.802Z,2980
2017-07-15T12:59:07.174Z,2916
2017-07-15T13:00:08.554Z,2836
2017-07-15T13:01:09.926Z,2708
2017-07-15T13:02:11.312Z,2720
2017-07-15T13:03:12.683Z,2848
2017-07-15T13:04:14.058Z,2904
2017-07-15T13:05:15.427Z,2892
2017-07-15T13:06:16.805Z,3044
2017-07-15T13:07:18.180Z,3056
2017-07-15T13:08:19.555Z,3028
2017-07-15T13:09:20.931Z,2956
2017-07-15T13:10:22.320Z,2876
2017-07-15T13:11:23.693Z,2976
2017-07-15T13:12:25.066Z,2856
2017-07-15T13:13:26.441Z,2940
2017-07-15T13:14:27.821Z,3144
2017-07-15T13:15:29.199Z,3304
2017-07-15T13:16:30.572Z,3268
2017-07-15T13:17:31.948Z,3132
2017-07-15T13:18:33.320Z,2896
2017-07-15T13:19:34.691Z,2620
2017-07-15T13:20:36.063Z,2488
2017-07-15T13:21:37.441Z,2568
2017-07-15T13:22:38.814Z,2976
2017-07-15T13:23:40.185Z,3356
2017-07-15T13:24:41.561Z,3500
2017-07-15T13:25:42.933Z,3236
2017-07-15T13:26:44.308Z,2944
2017-07-15T13:27:45.681Z,2732
2017-07-15T13:28:47.057Z,2692
2017-07-15T13:29:48.444Z,2636
2017-07-15T13:30:49.814Z,2576
2017-07-15T13:31:51.186Z,2516
2017-07-15T13:32:52.559Z,2508
2017-07-15T13:33:53.933Z,2520
2017-07-15T13:34:55.309Z,2636
2017-07-15T13:35:56.684Z,2708
2017-07-15T13:36:58.054Z,3040
2017-07-15T13:37:59.432Z,3188
2017-07-15T13:39:00.805Z,3280
2017-07-15T13:40:02.182Z,3332
2017-07-15T13:41:03.588Z,3492
2017-07-15T13:42:04.929Z,3492
2017-07-15T13:43:06.305Z,3448
2017-07-15T13:44:07.681Z,3504
2017-07-15T13:45:09.056Z,3684
2017-07-15T13:46:10.428Z,3720
2017-07-15T13:47:11.804Z,3696
2017-07-15T13:48:13.179Z,3904
2017-07-15T13:49:14.554Z,3820
2017-07-15T13:50:15.930Z,3744
2017-07-15T13:51:17.305Z,3600
2017-07-15T13:52:18.680Z,3456
2017-07-15T13:53:20.054Z,3308
2017-07-15T13:54:21.429Z,3120
2017-07-15T13:55:22.806Z,2952
2017-07-15T13:56:24.179Z,2856
2017-07-15T13:57:25.554Z,2808
2017-07-15T13:58:26.929Z,2660
2017-07-15T13:59:28.305Z,2588
2017-07-15T14:00:29.676Z,2644
2017-07-15T14:01:31.051Z,2784
2017-07-15T14:02:32.424Z,2952
2017-07-15T14:03:33.800Z,3140
2017-07-15T14:04:35.174Z,3272
2017-07-15T14:05:36.548Z,3312